Latest  Newer  Older  Last 2 hours animation  Current image  Latest image 
Rain/snow radar  Infrared sat images 
Real-time lightning map

All time is UTC (add 2 hours to UTC in wintertime, 3 hours to UTC in DST for Latvia local time)

2022/01/17 18:20 EVRA 171820Z 33016KT 300V360 CAVOK 00/M07 Q1007 NOSIG
2022/01/17 18:20 EVLA 171820Z AUTO 34009KT 310V010 9999 SCT033/// 02/M04 Q1013
2022/01/17 18:20 EVVA 171820Z AUTO 34015KT 9999 FEW037 02/M04 Q1012
2022/01/17 18:20 EYKA 171820Z 33011G25KT 250V030 CAVOK M01/M07 Q1007
2022/01/17 18:20 EYPA 171820Z 35011KT 320V020 CAVOK 02/M06 Q1013
2022/01/17 18:20 EYSA 171820Z 32020KT CAVOK M02/M07 Q1009 NOSIG
2022/01/17 18:20 EYVI 171820Z 34020KT 9999 BKN024 M02/M06 Q1003 NOSIG
2022/01/17 16:20 EEKA 171620Z 33025KT CAVOK 00/M06 Q1006
2022/01/17 18:20 EEKE 171820Z AUTO 33010KT 290V010 9999NDV FEW032 01/M04 Q1009

2022/01/17 18:20 EETN 171820Z 32019G29KT 9999 DRSN NSC M01/M07 Q1004 NOSIG
2022/01/17 18:20 EETU 171820Z AUTO 31014G26KT 9999 NCD M03/M09 Q1001
   RIGA AIRPORT     EVRA               56 55N  023 58E   10   X     T          6 LV
   LIEPAJA INTL     EVLA        26406  56 31N  021 06E    4   X                8 LV
   VENTPILS         EVVA               57 21N  021 33E    6   X                8 LV
   KAUNAS           EYKA               54 54N  023 55E   77   X     T          6 LT
   PALANGA INTL     EYPA               55 55N  021 03E   10   X                6 LT
   SIAULIAI INTL    EYSA               55 54N  023 24E  135   X     T          6 LT
   VILNIUS INTL     EYVI        26730  54 38N  025 17E  197   X     T          6 LT
   KARDLA           EEKA        26116  58 59N  022 50E    4   X                8 EE
   KURESSAARE       EEKE               58 14N  022 31E    4   X                8 EE
   PARNU            EEPU               58 25N  024 28E   14   X                8 EE
   TALLINN          EETN        26038  59 24N  024 49E   40   X     T          8 EE
   TARTU            EETU               58 19N  026 41E   67   X                8 EE

cloud coverage image from sat24.com and METAR data from weather.noaa.gov